Ionic United — V7QJ7 — position and weather

sailwx.info

Track history (hours):
 
Tides and Currents Weather Stations Pressure Air Temp Water Temp Dewpoint Dewpoint Depression Visibility Wind Speed Wind Dir Waves Ship Positions

Ionic United

Last reported at 2017-Dec-08 03:34 UTC. Time now 2018-Jan-19 03:06 UTC.
Position N 01°18' E 103°21'.
Warning: this ship's position is 41 days out of date.

Length 200 m; draft 13.1 m.

Type: Cargo ship. MMSI: 538006703.

Date/timePositionNaut miles runAvg speedWind from/ knotsBaromVisibWave heightAir tempDewpointWater temp
2017-Dec-08 03:34N 01°18' E 103°21'111.6
2017-Dec-08 03:30N 01°18' E 103°21'611.3
2017-Dec-08 03:01N 01°15' E 103°26'612.0
2017-Dec-08 02:30N 01°13' E 103°32'612.8
2017-Dec-08 02:01N 01°12' E 103°38'612.1
2017-Dec-08 01:31N 01°08' E 103°43'611.9
2017-Dec-08 01:00N 01°11' E 103°49'612.3
2017-Dec-08 00:31N 01°13' E 103°54'4 8.9
2017-Dec-08 00:00N 01°16' E 103°58'2 2.7
2017-Dec-07 23:15N 01°17' E 103°59'0 0.0
2017-Dec-07 23:00N 01°17' E 103°59'0 0.0
2017-Dec-07 22:30N 01°17' E 103°59'0 0.0
2017-Dec-07 21:57N 01°17' E 103°59'0 0.0
2017-Dec-07 21:30N 01°17' E 103°59'0 0.0
2017-Dec-07 19:15N 01°17' E 103°59'0 0.0
2017-Dec-07 18:51N 01°17' E 103°59'0 0.0
2017-Dec-07 18:27N 01°17' E 103°59'0 0.0
2017-Dec-07 17:51N 01°17' E 103°59'0 0.0
2017-Dec-07 17:00N 01°17' E 103°59'0 0.1
2017-Dec-07 14:42N 01°17' E 103°59'0 0.3
2017-Dec-07 14:30N 01°17' E 103°59'0 0.1
2017-Dec-07 13:59N 01°17' E 103°59'2 3.1
2017-Dec-07 13:29N 01°16' E 103°59'4 7.6
2017-Dec-07 13:00N 01°16' E 104°02'5 9.6
2017-Dec-07 12:30N 01°16' E 104°07'5 9.3
2017-Dec-07 11:59N 01°17' E 104°12'10 8.3
2017-Dec-07 10:46N 01°20' E 104°21'2 7.8
2017-Dec-07 10:27N 01°22' E 104°23'  
Track history (hours):
 
Tides and Currents Weather Stations Pressure Air Temp Water Temp Dewpoint Dewpoint Depression Visibility Wind Speed Wind Dir Waves Ship Positions

Ionic United

Last reported at 2017-Dec-08 03:34 UTC. Time now 2018-Jan-19 03:06 UTC.
Position N 01°18' E 103°21'.
Warning: this ship's position is 41 days out of date.

Length 200 m; draft 13.1 m.

Type: Cargo ship. MMSI: 538006703.

Date/timePositionNaut miles runAvg speedWind from/ knotsBaromVisibWave heightAir tempDewpointWater temp
2017-Dec-08 03:34N 01°18' E 103°21'111.6
2017-Dec-08 03:30N 01°18' E 103°21'611.3
2017-Dec-08 03:01N 01°15' E 103°26'612.0
2017-Dec-08 02:30N 01°13' E 103°32'612.8
2017-Dec-08 02:01N 01°12' E 103°38'612.1
2017-Dec-08 01:31N 01°08' E 103°43'611.9
2017-Dec-08 01:00N 01°11' E 103°49'612.3
2017-Dec-08 00:31N 01°13' E 103°54'4 8.9
2017-Dec-08 00:00N 01°16' E 103°58'2 2.7
2017-Dec-07 23:15N 01°17' E 103°59'0 0.0
2017-Dec-07 23:00N 01°17' E 103°59'0 0.0
2017-Dec-07 22:30N 01°17' E 103°59'0 0.0
2017-Dec-07 21:57N 01°17' E 103°59'0 0.0
2017-Dec-07 21:30N 01°17' E 103°59'0 0.0
2017-Dec-07 19:15N 01°17' E 103°59'0 0.0
2017-Dec-07 18:51N 01°17' E 103°59'0 0.0
2017-Dec-07 18:27N 01°17' E 103°59'0 0.0
2017-Dec-07 17:51N 01°17' E 103°59'0 0.0
2017-Dec-07 17:00N 01°17' E 103°59'0 0.1
2017-Dec-07 14:42N 01°17' E 103°59'0 0.3
2017-Dec-07 14:30N 01°17' E 103°59'0 0.1
2017-Dec-07 13:59N 01°17' E 103°59'2 3.1
2017-Dec-07 13:29N 01°16' E 103°59'4 7.6
2017-Dec-07 13:00N 01°16' E 104°02'5 9.6
2017-Dec-07 12:30N 01°16' E 104°07'5 9.3
2017-Dec-07 11:59N 01°17' E 104°12'10 8.3
2017-Dec-07 10:46N 01°20' E 104°21'2 7.8
2017-Dec-07 10:27N 01°22' E 104°23'  

Dump ship's entire track history